sensor_id;sensor_type;location;lat;lon;timestamp;pressure;altitude;pressure_sealevel;temperature;humidity
50484;BME280;36409;52.168;20.878;2022-11-12T00:02:31;101875.92;;;9.24;80.85
50484;BME280;36409;52.168;20.878;2022-11-12T00:05:19;101871.60;;;9.24;81.46
50484;BME280;36409;52.168;20.878;2022-11-12T00:08:07;101870.71;;;9.24;80.72
50484;BME280;36409;52.168;20.878;2022-11-12T00:10:55;101876.80;;;9.23;80.95
50484;BME280;36409;52.168;20.878;2022-11-12T00:13:42;101875.91;;;9.22;81.19
50484;BME280;36409;52.168;20.878;2022-11-12T00:16:34;101876.80;;;9.23;81.24
50484;BME280;36409;52.168;20.878;2022-11-12T00:19:22;101871.60;;;9.24;80.94
50484;BME280;36409;52.168;20.878;2022-11-12T00:22:09;101868.10;;;9.24;80.53
50484;BME280;36409;52.168;20.878;2022-11-12T00:24:57;101881.17;;;9.25;80.91
50484;BME280;36409;52.168;20.878;2022-11-12T00:28:00;101877.67;;;9.25;80.89
50484;BME280;36409;52.168;20.878;2022-11-12T00:30:51;101883.73;;;9.24;80.84
50484;BME280;36409;52.168;20.878;2022-11-12T00:33:47;101883.73;;;9.24;80.85
50484;BME280;36409;52.168;20.878;2022-11-12T00:36:35;101882.03;;;9.24;80.64
50484;BME280;36409;52.168;20.878;2022-11-12T00:39:23;101882.89;;;9.25;80.89
50484;BME280;36409;52.168;20.878;2022-11-12T00:42:10;101886.34;;;9.24;80.61
50484;BME280;36409;52.168;20.878;2022-11-12T00:44:58;101876.83;;;9.26;80.53
50484;BME280;36409;52.168;20.878;2022-11-12T00:47:48;101889.00;;;9.27;81.59
50484;BME280;36409;52.168;20.878;2022-11-12T00:50:36;101884.64;;;9.26;80.42
50484;BME280;36409;52.168;20.878;2022-11-12T00:53:23;101879.43;;;9.26;81.23
50484;BME280;36409;52.168;20.878;2022-11-12T00:56:14;101873.36;;;9.25;80.51
50484;BME280;36409;52.168;20.878;2022-11-12T00:59:02;101875.97;;;9.25;81.03
50484;BME280;36409;52.168;20.878;2022-11-12T01:01:51;101872.47;;;9.25;81.09
50484;BME280;36409;52.168;20.878;2022-11-12T01:04:38;101867.30;;;9.26;80.66
50484;BME280;36409;52.168;20.878;2022-11-12T01:07:27;101864.69;;;9.26;80.59
50484;BME280;36409;52.168;20.878;2022-11-12T01:10:15;101873.36;;;9.25;81.21
50484;BME280;36409;52.168;20.878;2022-11-12T01:13:03;101865.55;;;9.25;80.78
50484;BME280;36409;52.168;20.878;2022-11-12T01:15:52;101866.41;;;9.26;81.29
50484;BME280;36409;52.168;20.878;2022-11-12T01:18:43;101862.09;;;9.26;80.99
50484;BME280;36409;52.168;20.878;2022-11-12T01:21:36;101857.73;;;9.25;81.27
50484;BME280;36409;52.168;20.878;2022-11-12T01:24:28;101855.12;;;9.25;81.10
50484;BME280;36409;52.168;20.878;2022-11-12T01:27:16;101862.09;;;9.26;80.69
50484;BME280;36409;52.168;20.878;2022-11-12T01:30:04;101863.80;;;9.26;80.90
50484;BME280;36409;52.168;20.878;2022-11-12T01:32:52;101863.80;;;9.26;81.09
50484;BME280;36409;52.168;20.878;2022-11-12T01:35:40;101860.34;;;9.27;80.50
50484;BME280;36409;52.168;20.878;2022-11-12T01:38:27;101860.34;;;9.27;80.70
50484;BME280;36409;52.168;20.878;2022-11-12T01:41:17;101859.48;;;9.26;80.61
50484;BME280;36409;52.168;20.878;2022-11-12T01:44:13;101867.30;;;9.26;81.37
50484;BME280;36409;52.168;20.878;2022-11-12T01:47:09;101874.22;;;9.26;80.86
50484;BME280;36409;52.168;20.878;2022-11-12T01:50:03;101869.01;;;9.26;81.11
50484;BME280;36409;52.168;20.878;2022-11-12T01:52:56;101870.75;;;9.25;80.79
50484;BME280;36409;52.168;20.878;2022-11-12T01:55:46;101875.97;;;9.25;81.11
50484;BME280;36409;52.168;20.878;2022-11-12T01:58:38;101874.21;;;9.24;81.40
50484;BME280;36409;52.168;20.878;2022-11-12T02:01:26;101870.75;;;9.25;81.64
50484;BME280;36409;52.168;20.878;2022-11-12T02:04:14;101869.86;;;9.25;80.76
50484;BME280;36409;52.168;20.878;2022-11-12T02:07:05;101874.22;;;9.26;80.99
50484;BME280;36409;52.168;20.878;2022-11-12T02:09:54;101872.51;;;9.26;81.48
50484;BME280;36409;52.168;20.878;2022-11-12T02:12:43;101878.58;;;9.27;81.41
50484;BME280;36409;52.168;20.878;2022-11-12T02:15:48;101873.38;;;9.27;81.38
50484;BME280;36409;52.168;20.878;2022-11-12T02:18:36;101872.52;;;9.28;80.82
50484;BME280;36409;52.168;20.878;2022-11-12T02:21:25;101868.16;;;9.27;81.06
50484;BME280;36409;52.168;20.878;2022-11-12T02:24:33;101876.83;;;9.26;81.27
50484;BME280;36409;52.168;20.878;2022-11-12T02:27:23;101871.61;;;9.26;81.00
50484;BME280;36409;52.168;20.878;2022-11-12T02:30:18;101872.51;;;9.26;80.95
50484;BME280;36409;52.168;20.878;2022-11-12T02:33:05;101869.00;;;9.24;81.16
50484;BME280;36409;52.168;20.878;2022-11-12T02:35:52;101877.66;;;9.23;81.33
50484;BME280;36409;52.168;20.878;2022-11-12T02:38:39;101868.98;;;9.23;80.84
50484;BME280;36409;52.168;20.878;2022-11-12T02:41:35;101870.70;;;9.22;80.87
50484;BME280;36409;52.168;20.878;2022-11-12T02:44:23;101877.61;;;9.20;80.77
50484;BME280;36409;52.168;20.878;2022-11-12T02:47:10;101878.50;;;9.21;81.22
50484;BME280;36409;52.168;20.878;2022-11-12T02:50:01;101884.56;;;9.20;80.76
50484;BME280;36409;52.168;20.878;2022-11-12T02:52:51;101881.91;;;9.18;81.25
50484;BME280;36409;52.168;20.878;2022-11-12T02:55:42;101878.45;;;9.18;80.78
50484;BME280;36409;52.168;20.878;2022-11-12T02:58:32;101878.45;;;9.18;81.41
50484;BME280;36409;52.168;20.878;2022-11-12T03:01:19;101879.30;;;9.17;80.77
50484;BME280;36409;52.168;20.878;2022-11-12T03:04:07;101881.05;;;9.18;81.49
50484;BME280;36409;52.168;20.878;2022-11-12T03:06:57;101882.80;;;9.17;80.99
50484;BME280;36409;52.168;20.878;2022-11-12T03:09:45;101886.25;;;9.16;80.61
50484;BME280;36409;52.168;20.878;2022-11-12T03:12:33;101895.77;;;9.16;80.90
50484;BME280;36409;52.168;20.878;2022-11-12T03:15:22;101892.31;;;9.15;80.95
50484;BME280;36409;52.168;20.878;2022-11-12T03:18:09;101892.31;;;9.15;81.16
50484;BME280;36409;52.168;20.878;2022-11-12T03:20:57;101892.31;;;9.15;81.03
50484;BME280;36409;52.168;20.878;2022-11-12T03:23:49;101888.80;;;9.13;81.02
50484;BME280;36409;52.168;20.878;2022-11-12T03:26:37;101902.69;;;9.14;81.17
50484;BME280;36409;52.168;20.878;2022-11-12T03:29:27;101895.70;;;9.11;81.29
50484;BME280;36409;52.168;20.878;2022-11-12T03:32:14;101902.66;;;9.10;80.63
50484;BME280;36409;52.168;20.878;2022-11-12T03:35:02;101898.30;;;9.09;81.38
50484;BME280;36409;52.168;20.878;2022-11-12T03:37:49;101900.90;;;9.09;80.71
50484;BME280;36409;52.168;20.878;2022-11-12T03:40:37;101904.35;;;9.08;81.48
50484;BME280;36409;52.168;20.878;2022-11-12T03:43:24;101897.39;;;9.07;80.86
50484;BME280;36409;52.168;20.878;2022-11-12T03:46:13;101899.09;;;9.07;80.68
50484;BME280;36409;52.168;20.878;2022-11-12T03:49:01;101901.70;;;9.07;81.00
50484;BME280;36409;52.168;20.878;2022-11-12T03:51:48;101898.23;;;9.06;81.14
50484;BME280;36409;52.168;20.878;2022-11-12T03:54:36;101893.89;;;9.07;80.77
50484;BME280;36409;52.168;20.878;2022-11-12T03:57:27;101896.49;;;9.07;81.00
50484;BME280;36409;52.168;20.878;2022-11-12T04:00:18;101891.28;;;9.07;80.62
50484;BME280;36409;52.168;20.878;2022-11-12T04:03:08;101895.63;;;9.06;81.00
50484;BME280;36409;52.168;20.878;2022-11-12T04:05:55;101894.78;;;9.07;80.77
50484;BME280;36409;52.168;20.878;2022-11-12T04:09:01;101886.06;;;9.05;81.09
50484;BME280;36409;52.168;20.878;2022-11-12T04:11:50;101890.42;;;9.06;80.83
50484;BME280;36409;52.168;20.878;2022-11-12T04:14:41;101886.95;;;9.06;80.80
50484;BME280;36409;52.168;20.878;2022-11-12T04:17:28;101886.05;;;9.04;81.08
50484;BME280;36409;52.168;20.878;2022-11-12T04:20:34;101887.74;;;9.02;80.50
50484;BME280;36409;52.168;20.878;2022-11-12T04:23:44;101889.44;;;9.00;81.34
50484;BME280;36409;52.168;20.878;2022-11-12T04:26:36;101887.69;;;8.99;80.81
50484;BME280;36409;52.168;20.878;2022-11-12T04:29:23;101890.27;;;8.97;80.76
50484;BME280;36409;52.168;20.878;2022-11-12T04:32:31;101890.23;;;8.95;80.60
50484;BME280;36409;52.168;20.878;2022-11-12T04:35:20;101894.52;;;8.92;80.50
50484;BME280;36409;52.168;20.878;2022-11-12T04:38:07;101892.73;;;8.88;81.18
50484;BME280;36409;52.168;20.878;2022-11-12T04:40:56;101887.45;;;8.83;80.79
50484;BME280;36409;52.168;20.878;2022-11-12T04:44:05;101887.34;;;8.78;80.96
50484;BME280;36409;52.168;20.878;2022-11-12T04:47:17;101882.95;;;8.74;80.86
50484;BME280;36409;52.168;20.878;2022-11-12T04:50:15;101882.89;;;8.71;80.90
50484;BME280;36409;52.168;20.878;2022-11-12T04:53:04;101884.56;;;8.68;80.66
50484;BME280;36409;52.168;20.878;2022-11-12T04:55:54;101894.05;;;8.64;80.46
50484;BME280;36409;52.168;20.878;2022-11-12T04:58:43;101890.52;;;8.60;80.35
50484;BME280;36409;52.168;20.878;2022-11-12T05:01:39;101880.00;;;8.56;80.30
50484;BME280;36409;52.168;20.878;2022-11-12T05:04:29;101885.12;;;8.51;80.54
50484;BME280;36409;52.168;20.878;2022-11-12T05:07:17;101884.23;;;8.49;80.40
50484;BME280;36409;52.168;20.878;2022-11-12T05:10:09;101891.10;;;8.47;80.47
50484;BME280;36409;52.168;20.878;2022-11-12T05:12:58;101883.23;;;8.44;80.50
50484;BME280;36409;52.168;20.878;2022-11-12T05:15:46;101891.02;;;8.42;80.39
50484;BME280;36409;52.168;20.878;2022-11-12T05:18:36;101889.21;;;8.40;80.59
50484;BME280;36409;52.168;20.878;2022-11-12T05:21:25;101894.39;;;8.38;80.37
50484;BME280;36409;52.168;20.878;2022-11-12T05:24:40;101898.67;;;8.34;80.81
50484;BME280;36409;52.168;20.878;2022-11-12T05:27:29;101893.47;;;8.34;80.81
50484;BME280;36409;52.168;20.878;2022-11-12T05:30:17;101891.69;;;8.32;80.93
50484;BME280;36409;52.168;20.878;2022-11-12T05:33:10;101899.45;;;8.30;80.60
50484;BME280;36409;52.168;20.878;2022-11-12T05:35:58;101898.50;;;8.25;80.96
50484;BME280;36409;52.168;20.878;2022-11-12T05:38:48;101907.14;;;8.24;80.98
50484;BME280;36409;52.168;20.878;2022-11-12T05:41:37;101903.63;;;8.22;80.83
50484;BME280;36409;52.168;20.878;2022-11-12T05:44:47;101914.87;;;8.21;80.74
50484;BME280;36409;52.168;20.878;2022-11-12T05:47:35;101913.10;;;8.18;80.49
50484;BME280;36409;52.168;20.878;2022-11-12T05:50:27;101911.34;;;8.17;80.75
50484;BME280;36409;52.168;20.878;2022-11-12T05:53:37;101913.88;;;8.14;80.66
50484;BME280;36409;52.168;20.878;2022-11-12T05:56:25;101925.96;;;8.12;80.21
50484;BME280;36409;52.168;20.878;2022-11-12T05:59:17;101925.03;;;8.09;80.77
50484;BME280;36409;52.168;20.878;2022-11-12T06:02:08;101922.41;;;8.07;80.66
50484;BME280;36409;52.168;20.878;2022-11-12T06:04:56;101931.87;;;8.03;80.23
50484;BME280;36409;52.168;20.878;2022-11-12T06:07:42;101923.98;;;7.99;80.95
50484;BME280;36409;52.168;20.878;2022-11-12T06:10:30;101930.86;;;7.97;80.69
50484;BME280;36409;52.168;20.878;2022-11-12T06:13:20;101939.45;;;7.94;80.34
50484;BME280;36409;52.168;20.878;2022-11-12T06:16:09;101936.75;;;7.89;80.45
50484;BME280;36409;52.168;20.878;2022-11-12T06:19:12;101937.57;;;7.87;80.71
50484;BME280;36409;52.168;20.878;2022-11-12T06:22:02;101937.49;;;7.84;80.73
50484;BME280;36409;52.168;20.878;2022-11-12T06:24:49;101945.25;;;7.81;80.29
50484;BME280;36409;52.168;20.878;2022-11-12T06:27:36;101939.16;;;7.80;80.46
50484;BME280;36409;52.168;20.878;2022-11-12T06:30:24;101936.48;;;7.77;80.03
50484;BME280;36409;52.168;20.878;2022-11-12T06:33:13;101941.66;;;7.76;80.59
50484;BME280;36409;52.168;20.878;2022-11-12T06:36:02;101939.03;;;7.74;80.43
50484;BME280;36409;52.168;20.878;2022-11-12T06:38:50;101937.27;;;7.73;80.87
50484;BME280;36409;52.168;20.878;2022-11-12T06:41:41;101941.55;;;7.71;80.34
50484;BME280;36409;52.168;20.878;2022-11-12T06:44:45;101943.29;;;7.70;80.66
50484;BME280;36409;52.168;20.878;2022-11-12T06:47:33;101947.56;;;7.68;80.41
50484;BME280;36409;52.168;20.878;2022-11-12T06:50:20;101950.11;;;7.67;80.43
50484;BME280;36409;52.168;20.878;2022-11-12T06:53:11;101945.75;;;7.66;80.43
50484;BME280;36409;52.168;20.878;2022-11-12T06:56:02;101948.34;;;7.66;80.27
50484;BME280;36409;52.168;20.878;2022-11-12T06:58:50;101952.69;;;7.65;80.75
50484;BME280;36409;52.168;20.878;2022-11-12T07:01:44;101951.77;;;7.63;80.51
50484;BME280;36409;52.168;20.878;2022-11-12T07:04:32;101965.58;;;7.61;80.45
50484;BME280;36409;52.168;20.878;2022-11-12T07:07:20;101961.22;;;7.60;80.81
50484;BME280;36409;52.168;20.878;2022-11-12T07:10:10;101968.09;;;7.57;80.17
50484;BME280;36409;52.168;20.878;2022-11-12T07:12:57;101968.09;;;7.57;80.12
50484;BME280;36409;52.168;20.878;2022-11-12T07:15:44;101963.73;;;7.56;80.58
50484;BME280;36409;52.168;20.878;2022-11-12T07:18:35;101969.83;;;7.57;80.63
50484;BME280;36409;52.168;20.878;2022-11-12T07:21:31;101971.61;;;7.60;80.44
50484;BME280;36409;52.168;20.878;2022-11-12T07:24:18;101976.89;;;7.63;80.61
50484;BME280;36409;52.168;20.878;2022-11-12T07:27:05;101976.92;;;7.64;80.28
50484;BME280;36409;52.168;20.878;2022-11-12T07:29:54;101971.72;;;7.64;80.75
50484;BME280;36409;52.168;20.878;2022-11-12T07:32:41;101970.91;;;7.67;81.02
50484;BME280;36409;52.168;20.878;2022-11-12T07:35:37;101973.56;;;7.68;80.88
50484;BME280;36409;52.168;20.878;2022-11-12T07:38:26;101970.98;;;7.70;80.57
50484;BME280;36409;52.168;20.878;2022-11-12T07:41:15;101977.08;;;7.70;80.89
50484;BME280;36409;52.168;20.878;2022-11-12T07:44:03;101977.97;;;7.72;81.12
50484;BME280;36409;52.168;20.878;2022-11-12T07:46:51;101972.74;;;7.71;80.68
50484;BME280;36409;52.168;20.878;2022-11-12T07:49:38;101978.02;;;7.74;80.53
50484;BME280;36409;52.168;20.878;2022-11-12T07:52:26;101979.80;;;7.77;80.92
50484;BME280;36409;52.168;20.878;2022-11-12T07:55:15;101985.92;;;7.79;80.81
50484;BME280;36409;52.168;20.878;2022-11-12T07:58:02;101987.62;;;7.78;80.58
50484;BME280;36409;52.168;20.878;2022-11-12T08:00:50;101982.48;;;7.80;81.11
50484;BME280;36409;52.168;20.878;2022-11-12T08:03:42;101979.91;;;7.81;80.82
50484;BME280;36409;52.168;20.878;2022-11-12T08:06:34;101979.94;;;7.83;80.56
50484;BME280;36409;52.168;20.878;2022-11-12T08:09:22;101979.09;;;7.84;80.75
50484;BME280;36409;52.168;20.878;2022-11-12T08:12:13;101976.57;;;7.87;80.63
50484;BME280;36409;52.168;20.878;2022-11-12T08:15:04;101980.09;;;7.89;81.14
50484;BME280;36409;52.168;20.878;2022-11-12T08:17:52;101980.92;;;7.88;81.04
50484;BME280;36409;52.168;20.878;2022-11-12T08:20:40;101980.92;;;7.88;80.76
50484;BME280;36409;52.168;20.878;2022-11-12T08:23:28;101981.77;;;7.87;80.78
50484;BME280;36409;52.168;20.878;2022-11-12T08:26:17;101980.06;;;7.87;80.37
50484;BME280;36409;52.168;20.878;2022-11-12T08:29:09;101983.55;;;7.89;81.04
50484;BME280;36409;52.168;20.878;2022-11-12T08:31:56;101984.47;;;7.92;80.87
50484;BME280;36409;52.168;20.878;2022-11-12T08:34:43;101977.56;;;7.92;80.54
50484;BME280;36409;52.168;20.878;2022-11-12T08:37:32;101990.61;;;7.95;80.35
50484;BME280;36409;52.168;20.878;2022-11-12T08:40:19;101978.59;;;7.99;81.04
50484;BME280;36409;52.168;20.878;2022-11-12T08:43:09;101991.63;;;8.02;80.98
50484;BME280;36409;52.168;20.878;2022-11-12T08:45:58;101995.15;;;8.04;80.35
50484;BME280;36409;52.168;20.878;2022-11-12T08:48:48;102000.35;;;8.04;80.72
50484;BME280;36409;52.168;20.878;2022-11-12T08:51:35;101994.31;;;8.05;81.08
50484;BME280;36409;52.168;20.878;2022-11-12T08:54:23;101997.83;;;8.07;80.69
50484;BME280;36409;52.168;20.878;2022-11-12T08:57:11;101997.84;;;8.09;80.77
50484;BME280;36409;52.168;20.878;2022-11-12T09:00:06;101990.94;;;8.09;80.79
50484;BME280;36409;52.168;20.878;2022-11-12T09:03:07;101996.14;;;8.09;80.25
50484;BME280;36409;52.168;20.878;2022-11-12T09:06:02;102005.70;;;8.10;80.72
50484;BME280;36409;52.168;20.878;2022-11-12T09:08:50;102008.33;;;8.12;80.35
50484;BME280;36409;52.168;20.878;2022-11-12T09:11:40;102007.48;;;8.13;80.86
50484;BME280;36409;52.168;20.878;2022-11-12T09:14:29;102011.88;;;8.15;81.08
50484;BME280;36409;52.168;20.878;2022-11-12T09:17:17;102016.16;;;8.13;80.37
50484;BME280;36409;52.168;20.878;2022-11-12T09:20:08;102021.36;;;8.13;80.72
50484;BME280;36409;52.168;20.878;2022-11-12T09:22:59;102013.55;;;8.13;80.86
50484;BME280;36409;52.168;20.878;2022-11-12T09:25:50;102014.39;;;8.12;80.66
50484;BME280;36409;52.168;20.878;2022-11-12T09:28:40;102011.69;;;8.08;80.08
50484;BME280;36409;52.168;20.878;2022-11-12T09:31:42;102013.35;;;8.04;80.68
50484;BME280;36409;52.168;20.878;2022-11-12T09:34:30;102010.75;;;8.04;80.41
50484;BME280;36409;52.168;20.878;2022-11-12T09:37:17;102016.87;;;8.06;80.83
50484;BME280;36409;52.168;20.878;2022-11-12T09:40:08;102015.19;;;8.08;80.62
50484;BME280;36409;52.168;20.878;2022-11-12T09:43:09;102016.03;;;8.07;80.38
50484;BME280;36409;52.168;20.878;2022-11-12T09:46:05;102019.45;;;8.04;80.31
50484;BME280;36409;52.168;20.878;2022-11-12T09:49:17;102020.23;;;8.02;80.63
50484;BME280;36409;52.168;20.878;2022-11-12T09:52:15;102025.44;;;8.02;80.42
50484;BME280;36409;52.168;20.878;2022-11-12T09:55:16;102022.79;;;7.99;80.12
50484;BME280;36409;52.168;20.878;2022-11-12T09:58:10;102020.23;;;8.02;81.04
50484;BME280;36409;52.168;20.878;2022-11-12T10:01:05;102020.31;;;8.05;80.98
50484;BME280;36409;52.168;20.878;2022-11-12T10:04:27;102020.41;;;8.10;80.92
50484;BME280;36409;52.168;20.878;2022-11-12T10:07:30;102024.88;;;8.15;80.38
50484;BME280;36409;52.168;20.878;2022-11-12T10:10:33;102022.30;;;8.17;80.39
50484;BME280;36409;52.168;20.878;2022-11-12T10:13:37;102021.45;;;8.18;80.84
50484;BME280;36409;52.168;20.878;2022-11-12T10:16:52;102025.03;;;8.22;80.52
50484;BME280;36409;52.168;20.878;2022-11-12T10:19:52;102022.42;;;8.22;80.99
50484;BME280;36409;52.168;20.878;2022-11-12T10:23:00;102029.36;;;8.23;80.39
50484;BME280;36409;52.168;20.878;2022-11-12T10:25:56;102024.16;;;8.23;81.04
50484;BME280;36409;52.168;20.878;2022-11-12T10:28:54;102028.52;;;8.24;80.07
50484;BME280;36409;52.168;20.878;2022-11-12T10:31:50;102032.03;;;8.26;80.75
50484;BME280;36409;52.168;20.878;2022-11-12T10:34:54;102037.31;;;8.29;81.06
50484;BME280;36409;52.168;20.878;2022-11-12T10:37:51;102040.78;;;8.29;80.63
50484;BME280;36409;52.168;20.878;2022-11-12T10:40:45;102037.34;;;8.30;81.08
50484;BME280;36409;52.168;20.878;2022-11-12T10:43:36;102039.09;;;8.31;80.65
50484;BME280;36409;52.168;20.878;2022-11-12T10:46:38;102035.62;;;8.31;80.46
50484;BME280;36409;52.168;20.878;2022-11-12T10:49:26;102036.49;;;8.31;80.43
50484;BME280;36409;52.168;20.878;2022-11-12T10:52:22;102033.89;;;8.31;80.94
50484;BME280;36409;52.168;20.878;2022-11-12T10:55:17;102037.41;;;8.33;80.41
50484;BME280;36409;52.168;20.878;2022-11-12T10:58:15;102037.41;;;8.33;81.16
50484;BME280;36409;52.168;20.878;2022-11-12T11:01:13;102027.87;;;8.34;80.13
50484;BME280;36409;52.168;20.878;2022-11-12T11:04:29;102031.29;;;8.31;80.16
50484;BME280;36409;52.168;20.878;2022-11-12T11:07:22;102035.62;;;8.31;80.42
50484;BME280;36409;52.168;20.878;2022-11-12T11:10:25;102033.87;;;8.30;80.83
50484;BME280;36409;52.168;20.878;2022-11-12T11:13:20;102039.99;;;8.32;80.56
50484;BME280;36409;52.168;20.878;2022-11-12T11:16:11;102041.70;;;8.31;80.17
50484;BME280;36409;52.168;20.878;2022-11-12T11:19:08;102040.76;;;8.28;80.60
50484;BME280;36409;52.168;20.878;2022-11-12T11:22:11;102041.59;;;8.27;80.93
50484;BME280;36409;52.168;20.878;2022-11-12T11:25:13;102033.77;;;8.25;80.80
50484;BME280;36409;52.168;20.878;2022-11-12T11:28:12;102035.48;;;8.25;80.76
50484;BME280;36409;52.168;20.878;2022-11-12T11:31:05;102039.89;;;8.27;80.47
50484;BME280;36409;52.168;20.878;2022-11-12T11:34:14;102035.58;;;8.29;80.66
50484;BME280;36409;52.168;20.878;2022-11-12T11:37:23;102035.58;;;8.29;80.88
50484;BME280;36409;52.168;20.878;2022-11-12T11:40:23;102039.99;;;8.32;80.46
50484;BME280;36409;52.168;20.878;2022-11-12T11:43:32;102046.95;;;8.33;80.76
50484;BME280;36409;52.168;20.878;2022-11-12T11:46:33;102040.03;;;8.35;80.69
50484;BME280;36409;52.168;20.878;2022-11-12T11:52:53;102042.59;;;8.32;80.33
50484;BME280;36409;52.168;20.878;2022-11-12T11:55:55;102039.99;;;8.32;80.61
50484;BME280;36409;52.168;20.878;2022-11-12T11:59:11;102043.37;;;8.29;80.65
50484;BME280;36409;52.168;20.878;2022-11-12T12:02:29;102046.78;;;8.25;80.03
50484;BME280;36409;52.168;20.878;2022-11-12T12:05:32;102038.92;;;8.24;80.59
50484;BME280;36409;52.168;20.878;2022-11-12T12:08:37;102041.59;;;8.27;80.93
50484;BME280;36409;52.168;20.878;2022-11-12T12:11:34;102031.29;;;8.31;80.41
50484;BME280;36409;52.168;20.878;2022-11-12T12:14:32;102041.75;;;8.33;80.96
50484;BME280;36409;52.168;20.878;2022-11-12T12:17:41;102034.81;;;8.33;80.32
50484;BME280;36409;52.168;20.878;2022-11-12T12:20:44;102035.73;;;8.35;80.95
50484;BME280;36409;52.168;20.878;2022-11-12T12:23:39;102037.53;;;8.40;81.14
50484;BME280;36409;52.168;20.878;2022-11-12T12:26:43;102037.51;;;8.38;80.07
50484;BME280;36409;52.168;20.878;2022-11-12T12:29:39;102030.63;;;8.40;80.66
50484;BME280;36409;52.168;20.878;2022-11-12T12:32:34;102030.63;;;8.40;80.43
50484;BME280;36409;52.168;20.878;2022-11-12T12:35:30;102022.83;;;8.42;80.32
50484;BME280;36409;52.168;20.878;2022-11-12T12:38:26;102019.44;;;8.44;80.81
50484;BME280;36409;52.168;20.878;2022-11-12T12:41:24;102032.53;;;8.47;80.37
50484;BME280;36409;52.168;20.878;2022-11-12T12:44:14;102024.79;;;8.50;80.29
50484;BME280;36409;52.168;20.878;2022-11-12T12:47:09;102027.47;;;8.54;80.46
50484;BME280;36409;52.168;20.878;2022-11-12T12:50:03;102019.66;;;8.54;80.27
50484;BME280;36409;52.168;20.878;2022-11-12T12:53:02;102024.04;;;8.56;80.02
50484;BME280;36409;52.168;20.878;2022-11-12T12:55:52;102024.91;;;8.57;79.71
50484;BME280;36409;52.168;20.878;2022-11-12T12:58:48;102022.30;;;8.57;80.02
50484;BME280;36409;52.168;20.878;2022-11-12T13:01:43;102026.66;;;8.58;80.29
50484;BME280;36409;52.168;20.878;2022-11-12T13:04:49;102030.18;;;8.60;80.50
50484;BME280;36409;52.168;20.878;2022-11-12T13:07:42;102031.09;;;8.62;80.42
50484;BME280;36409;52.168;20.878;2022-11-12T13:10:54;102021.59;;;8.64;80.48
50484;BME280;36409;52.168;20.878;2022-11-12T13:13:44;102030.27;;;8.64;80.77
50484;BME280;36409;52.168;20.878;2022-11-12T13:16:57;102029.42;;;8.65;79.90
50484;BME280;36409;52.168;20.878;2022-11-12T13:20:15;102025.06;;;8.64;80.18
50484;BME280;36409;52.168;20.878;2022-11-12T13:22:57;102031.17;;;8.65;80.67
50484;BME280;36409;52.168;20.878;2022-11-12T13:25:45;102020.75;;;8.65;79.84
50484;BME280;36409;52.168;20.878;2022-11-12T13:28:33;102020.75;;;8.65;79.93
50484;BME280;36409;52.168;20.878;2022-11-12T13:31:33;102023.37;;;8.67;80.49
50484;BME280;36409;52.168;20.878;2022-11-12T13:34:29;102028.58;;;8.67;80.65
50484;BME280;36409;52.168;20.878;2022-11-12T13:37:19;102032.10;;;8.69;80.08
50484;BME280;36409;52.168;20.878;2022-11-12T13:40:14;102029.50;;;8.69;80.45
50484;BME280;36409;52.168;20.878;2022-11-12T13:43:08;102040.77;;;8.69;79.91
50484;BME280;36409;52.168;20.878;2022-11-12T13:46:07;102036.41;;;8.68;80.14
50484;BME280;36409;52.168;20.878;2022-11-12T13:49:09;102032.05;;;8.67;79.83
50484;BME280;36409;52.168;20.878;2022-11-12T13:52:00;102032.95;;;8.68;80.38
50484;BME280;36409;52.168;20.878;2022-11-12T13:55:00;102033.81;;;8.68;79.97
50484;BME280;36409;52.168;20.878;2022-11-12T13:57:52;102033.81;;;8.68;80.37
50484;BME280;36409;52.168;20.878;2022-11-12T14:00:40;102033.77;;;8.65;80.33
50484;BME280;36409;52.168;20.878;2022-11-12T14:03:48;102022.46;;;8.64;80.41
50484;BME280;36409;52.168;20.878;2022-11-12T14:06:40;102031.12;;;8.63;80.21
50484;BME280;36409;52.168;20.878;2022-11-12T14:09:44;102020.70;;;8.63;80.23
50484;BME280;36409;52.168;20.878;2022-11-12T14:13:14;102035.45;;;8.63;80.18
50484;BME280;36409;52.168;20.878;2022-11-12T14:16:18;102031.09;;;8.62;79.92
50484;BME280;36409;52.168;20.878;2022-11-12T14:22:41;102034.52;;;8.59;80.58
50484;BME280;36409;52.168;20.878;2022-11-12T14:25:29;102026.72;;;8.59;80.37
50484;BME280;36409;52.168;20.878;2022-11-12T14:28:28;102028.42;;;8.59;80.09
50484;BME280;36409;52.168;20.878;2022-11-12T14:34:31;102026.66;;;8.58;80.32
50484;BME280;36409;52.168;20.878;2022-11-12T14:37:34;102026.66;;;8.58;80.04
50484;BME280;36409;52.168;20.878;2022-11-12T14:40:32;102033.55;;;8.56;80.15
50484;BME280;36409;52.168;20.878;2022-11-12T14:43:37;102029.23;;;8.55;80.62
50484;BME280;36409;52.168;20.878;2022-11-12T14:46:42;102030.06;;;8.54;80.21
50484;BME280;36409;52.168;20.878;2022-11-12T14:49:42;102034.43;;;8.55;79.97
50484;BME280;36409;52.168;20.878;2022-11-12T14:52:35;102029.23;;;8.55;80.80
50484;BME280;36409;52.168;20.878;2022-11-12T14:55:27;102024.86;;;8.54;80.32
50484;BME280;36409;52.168;20.878;2022-11-12T14:58:27;102021.36;;;8.53;80.00
50484;BME280;36409;52.168;20.878;2022-11-12T15:01:29;102018.77;;;8.53;79.79
50484;BME280;36409;52.168;20.878;2022-11-12T15:04:58;102026.57;;;8.53;80.07
50484;BME280;36409;52.168;20.878;2022-11-12T15:07:59;102030.91;;;8.53;80.00
50484;BME280;36409;52.168;20.878;2022-11-12T15:10:52;102030.02;;;8.52;80.51
50484;BME280;36409;52.168;20.878;2022-11-12T15:13:41;102040.43;;;8.52;80.57
50484;BME280;36409;52.168;20.878;2022-11-12T15:16:38;102036.12;;;8.53;80.24
50484;BME280;36409;52.168;20.878;2022-11-12T15:19:31;102032.67;;;8.54;80.26